sensor_id;sensor_type;location;lat;lon;timestamp;pressure;altitude;pressure_sealevel;temperature;humidity
77062;BME280;65989;51.686;5.138;2023-02-03T00:01:46;102623.66;;;7.66;88.64
77062;BME280;65989;51.686;5.138;2023-02-03T00:04:11;102627.09;;;7.67;88.61
77062;BME280;65989;51.686;5.138;2023-02-03T00:06:37;102635.00;;;7.67;88.53
77062;BME280;65989;51.686;5.138;2023-02-03T00:09:03;102639.28;;;7.68;88.47
77062;BME280;65989;51.686;5.138;2023-02-03T00:11:30;102645.41;;;7.68;88.61
77062;BME280;65989;51.686;5.138;2023-02-03T00:13:56;102637.28;;;7.70;88.38
77062;BME280;65989;51.686;5.138;2023-02-03T00:16:22;102644.41;;;7.69;88.32
77062;BME280;65989;51.686;5.138;2023-02-03T00:18:47;102640.56;;;7.72;88.38
77062;BME280;65989;51.686;5.138;2023-02-03T00:21:13;102641.00;;;7.75;88.36
77062;BME280;65989;51.686;5.138;2023-02-03T00:23:51;102645.44;;;7.75;88.13
77062;BME280;65989;51.686;5.138;2023-02-03T00:26:32;102667.41;;;7.75;88.19
77062;BME280;65989;51.686;5.138;2023-02-03T00:28:58;102673.31;;;7.77;88.31
77062;BME280;65989;51.686;5.138;2023-02-03T00:31:24;102664.34;;;7.78;87.99
77062;BME280;65989;51.686;5.138;2023-02-03T00:33:54;102664.19;;;7.80;88.22
77062;BME280;65989;51.686;5.138;2023-02-03T00:36:20;102668.44;;;7.81;87.87
77062;BME280;65989;51.686;5.138;2023-02-03T00:38:46;102659.53;;;7.82;87.84
77062;BME280;65989;51.686;5.138;2023-02-03T00:41:13;102661.97;;;7.84;87.68
77062;BME280;65989;51.686;5.138;2023-02-03T00:43:38;102654.03;;;7.84;87.84
77062;BME280;65989;51.686;5.138;2023-02-03T00:46:03;102658.94;;;7.87;87.73
77062;BME280;65989;51.686;5.138;2023-02-03T00:48:29;102672.97;;;7.87;87.58
77062;BME280;65989;51.686;5.138;2023-02-03T00:50:54;102665.88;;;7.88;87.77
77062;BME280;65989;51.686;5.138;2023-02-03T00:53:20;102674.78;;;7.87;87.71
77062;BME280;65989;51.686;5.138;2023-02-03T00:55:45;102677.25;;;7.88;87.56
77062;BME280;65989;51.686;5.138;2023-02-03T00:58:11;102680.53;;;7.90;87.23
77062;BME280;65989;51.686;5.138;2023-02-03T01:00:36;102676.03;;;7.91;87.53
77062;BME280;65989;51.686;5.138;2023-02-03T01:03:02;102690.72;;;7.94;87.32
77062;BME280;65989;51.686;5.138;2023-02-03T01:05:27;102686.22;;;7.94;87.31
77062;BME280;65989;51.686;5.138;2023-02-03T01:07:53;102685.44;;;7.94;87.17
77062;BME280;65989;51.686;5.138;2023-02-03T01:10:18;102686.22;;;7.94;87.17
77062;BME280;65989;51.686;5.138;2023-02-03T01:12:43;102682.78;;;7.94;86.95
77062;BME280;65989;51.686;5.138;2023-02-03T01:15:09;102659.63;;;7.96;86.82
77062;BME280;65989;51.686;5.138;2023-02-03T01:17:35;102665.09;;;7.94;86.86
77062;BME280;65989;51.686;5.138;2023-02-03T01:20:00;102668.13;;;7.91;86.84
77062;BME280;65989;51.686;5.138;2023-02-03T01:22:28;102648.66;;;7.92;86.58
77062;BME280;65989;51.686;5.138;2023-02-03T01:24:54;102645.63;;;7.95;86.52
77062;BME280;65989;51.686;5.138;2023-02-03T01:27:19;102646.44;;;7.96;86.42
77062;BME280;65989;51.686;5.138;2023-02-03T01:29:45;102649.06;;;7.96;86.33
77062;BME280;65989;51.686;5.138;2023-02-03T01:32:11;102663.09;;;7.96;86.51
77062;BME280;65989;51.686;5.138;2023-02-03T01:34:36;102652.53;;;7.96;86.25
77062;BME280;65989;51.686;5.138;2023-02-03T01:37:02;102641.97;;;7.96;86.37
77062;BME280;65989;51.686;5.138;2023-02-03T01:39:27;102639.97;;;7.98;86.04
77062;BME280;65989;51.686;5.138;2023-02-03T01:41:54;102637.13;;;8.00;86.07
77062;BME280;65989;51.686;5.138;2023-02-03T01:47:30;102652.97;;;8.00;85.96
77062;BME280;65989;51.686;5.138;2023-02-03T01:50:17;102642.47;;;8.06;86.23
77062;BME280;65989;51.686;5.138;2023-02-03T01:52:48;102635.31;;;8.00;85.83
77062;BME280;65989;51.686;5.138;2023-02-03T01:55:19;102627.19;;;8.02;85.71
77062;BME280;65989;51.686;5.138;2023-02-03T01:57:50;102626.38;;;8.01;85.57
77062;BME280;65989;51.686;5.138;2023-02-03T02:00:16;102602.63;;;8.01;85.56
77062;BME280;65989;51.686;5.138;2023-02-03T02:02:44;102613.00;;;8.03;85.43
77062;BME280;65989;51.686;5.138;2023-02-03T02:05:16;102614.00;;;8.02;85.37
77062;BME280;65989;51.686;5.138;2023-02-03T02:07:45;102625.19;;;8.04;85.47
77062;BME280;65989;51.686;5.138;2023-02-03T02:10:12;102633.94;;;8.04;85.52
77062;BME280;65989;51.686;5.138;2023-02-03T02:12:37;102629.44;;;8.05;85.27
77062;BME280;65989;51.686;5.138;2023-02-03T02:15:03;102616.63;;;8.02;85.12
77062;BME280;65989;51.686;5.138;2023-02-03T02:23:06;102621.16;;;8.08;85.08
77062;BME280;65989;51.686;5.138;2023-02-03T02:25:52;102621.97;;;8.09;84.93
77062;BME280;65989;51.686;5.138;2023-02-03T02:34:03;102627.69;;;8.12;84.55
77062;BME280;65989;51.686;5.138;2023-02-03T02:36:40;102634.97;;;8.10;84.46
77062;BME280;65989;51.686;5.138;2023-02-03T02:40:09;102616.91;;;8.14;84.81
77062;BME280;65989;51.686;5.138;2023-02-03T02:42:25;102618.13;;;8.11;84.59
77062;BME280;65989;51.686;5.138;2023-02-03T02:44:58;102604.94;;;8.11;84.34
77062;BME280;65989;51.686;5.138;2023-02-03T02:47:27;102608.56;;;8.10;84.40
77062;BME280;65989;51.686;5.138;2023-02-03T02:50:10;102613.28;;;8.15;84.49
77062;BME280;65989;51.686;5.138;2023-02-03T02:52:40;102595.63;;;8.15;84.44
77062;BME280;65989;51.686;5.138;2023-02-03T02:55:10;102606.34;;;8.14;84.43
77062;BME280;65989;51.686;5.138;2023-02-03T02:57:38;102607.19;;;8.14;84.36
77062;BME280;65989;51.686;5.138;2023-02-03T03:00:04;102623.03;;;8.14;84.39
77062;BME280;65989;51.686;5.138;2023-02-03T03:02:33;102623.03;;;8.14;84.26
77062;BME280;65989;51.686;5.138;2023-02-03T03:04:59;102620.81;;;8.18;84.32
77062;BME280;65989;51.686;5.138;2023-02-03T03:07:26;102619.19;;;8.17;84.08
77062;BME280;65989;51.686;5.138;2023-02-03T03:10:00;102605.16;;;8.16;83.95
77062;BME280;65989;51.686;5.138;2023-02-03T03:12:39;102604.78;;;8.19;84.16
77062;BME280;65989;51.686;5.138;2023-02-03T03:15:17;102597.88;;;8.18;83.92
77062;BME280;65989;51.686;5.138;2023-02-03T03:18:14;102585.09;;;8.22;84.01
77062;BME280;65989;51.686;5.138;2023-02-03T03:20:40;102595.22;;;8.18;84.17
77062;BME280;65989;51.686;5.138;2023-02-03T03:23:15;102605.59;;;8.20;84.16
77062;BME280;65989;51.686;5.138;2023-02-03T03:25:48;102589.34;;;8.23;83.74
77062;BME280;65989;51.686;5.138;2023-02-03T03:28:22;102580.44;;;8.24;83.87
77062;BME280;65989;51.686;5.138;2023-02-03T03:30:51;102578.00;;;8.22;83.98
77062;BME280;65989;51.686;5.138;2023-02-03T03:33:17;102573.50;;;8.23;83.77
77062;BME280;65989;51.686;5.138;2023-02-03T03:36:08;102572.53;;;8.31;83.85
77062;BME280;65989;51.686;5.138;2023-02-03T03:38:54;102563.41;;;8.27;83.57
77062;BME280;65989;51.686;5.138;2023-02-03T03:41:28;102563.41;;;8.27;83.71
77062;BME280;65989;51.686;5.138;2023-02-03T03:43:58;102588.16;;;8.26;83.40
77062;BME280;65989;51.686;5.138;2023-02-03T03:46:33;102590.59;;;8.27;83.51
77062;BME280;65989;51.686;5.138;2023-02-03T03:49:03;102594.25;;;8.26;83.59
77062;BME280;65989;51.686;5.138;2023-02-03T03:51:32;102590.19;;;8.24;83.52
77062;BME280;65989;51.686;5.138;2023-02-03T03:54:04;102599.75;;;8.25;83.56
77062;BME280;65989;51.686;5.138;2023-02-03T03:56:35;102605.03;;;8.25;83.71
77062;BME280;65989;51.686;5.138;2023-02-03T03:59:04;102622.50;;;8.26;83.47
77062;BME280;65989;51.686;5.138;2023-02-03T04:01:32;102629.59;;;8.25;83.51
77062;BME280;65989;51.686;5.138;2023-02-03T04:04:01;102627.59;;;8.27;83.49
77062;BME280;65989;51.686;5.138;2023-02-03T04:06:27;102620.66;;;8.26;83.60
77062;BME280;65989;51.686;5.138;2023-02-03T04:08:52;102615.38;;;8.26;83.58
77062;BME280;65989;51.686;5.138;2023-02-03T04:11:17;102628.78;;;8.25;83.60
77062;BME280;65989;51.686;5.138;2023-02-03T04:14:02;102632.06;;;8.27;83.36
77062;BME280;65989;51.686;5.138;2023-02-03T04:16:27;102638.34;;;8.26;83.38
77062;BME280;65989;51.686;5.138;2023-02-03T04:18:52;102622.69;;;8.24;83.50
77062;BME280;65989;51.686;5.138;2023-02-03T04:21:18;102624.31;;;8.25;83.48
77062;BME280;65989;51.686;5.138;2023-02-03T04:23:43;102622.94;;;8.29;83.44
77062;BME280;65989;51.686;5.138;2023-02-03T04:26:09;102614.16;;;8.29;83.31
77062;BME280;65989;51.686;5.138;2023-02-03T04:28:36;102626.38;;;8.30;83.58
77062;BME280;65989;51.686;5.138;2023-02-03T04:31:02;102628.41;;;8.28;83.56
77062;BME280;65989;51.686;5.138;2023-02-03T04:33:27;102620.28;;;8.29;83.45
77062;BME280;65989;51.686;5.138;2023-02-03T04:35:52;102605.66;;;8.27;83.41
77062;BME280;65989;51.686;5.138;2023-02-03T04:38:18;102619.06;;;8.32;83.27
77062;BME280;65989;51.686;5.138;2023-02-03T04:40:43;102618.66;;;8.28;83.43
77062;BME280;65989;51.686;5.138;2023-02-03T04:43:10;102622.50;;;8.26;83.28
77062;BME280;65989;51.686;5.138;2023-02-03T04:45:36;102631.66;;;8.30;83.09
77062;BME280;65989;51.686;5.138;2023-02-03T04:48:01;102615.22;;;8.28;83.42
77062;BME280;65989;51.686;5.138;2023-02-03T04:50:29;102604.81;;;8.26;83.40
77062;BME280;65989;51.686;5.138;2023-02-03T04:52:54;102609.47;;;8.24;83.33
77062;BME280;65989;51.686;5.138;2023-02-03T04:55:19;102598.13;;;8.24;83.49
77062;BME280;65989;51.686;5.138;2023-02-03T04:57:45;102598.13;;;8.24;83.38
77062;BME280;65989;51.686;5.138;2023-02-03T05:00:11;102603.19;;;8.25;83.33
77062;BME280;65989;51.686;5.138;2023-02-03T05:02:36;102612.31;;;8.22;83.22
77062;BME280;65989;51.686;5.138;2023-02-03T05:05:02;102606.03;;;8.24;83.61
77062;BME280;65989;51.686;5.138;2023-02-03T05:07:27;102599.13;;;8.22;83.16
77062;BME280;65989;51.686;5.138;2023-02-03T05:09:52;102612.94;;;8.25;83.41
77062;BME280;65989;51.686;5.138;2023-02-03T05:12:18;102621.88;;;8.24;83.46
77062;BME280;65989;51.686;5.138;2023-02-03T05:14:43;102625.16;;;8.26;83.20
77062;BME280;65989;51.686;5.138;2023-02-03T05:17:08;102610.94;;;8.27;83.29
77062;BME280;65989;51.686;5.138;2023-02-03T05:19:34;102613.38;;;8.28;83.21
77062;BME280;65989;51.686;5.138;2023-02-03T05:21:59;102607.66;;;8.25;83.20
77062;BME280;65989;51.686;5.138;2023-02-03T05:24:25;102619.88;;;8.26;83.09
77062;BME280;65989;51.686;5.138;2023-02-03T05:26:50;102631.22;;;8.26;83.35
77062;BME280;65989;51.686;5.138;2023-02-03T05:29:15;102641.78;;;8.26;83.03
77062;BME280;65989;51.686;5.138;2023-02-03T05:31:41;102640.38;;;8.24;83.04
77062;BME280;65989;51.686;5.138;2023-02-03T05:34:06;102636.72;;;8.25;83.13
77062;BME280;65989;51.686;5.138;2023-02-03T05:36:31;102637.94;;;8.29;83.19
77062;BME280;65989;51.686;5.138;2023-02-03T05:38:57;102630.59;;;8.24;83.19
77062;BME280;65989;51.686;5.138;2023-02-03T05:41:23;102628.97;;;8.23;83.24
77062;BME280;65989;51.686;5.138;2023-02-03T05:44:06;102625.31;;;8.24;83.43
77062;BME280;65989;51.686;5.138;2023-02-03T05:46:32;102635.72;;;8.26;83.11
77062;BME280;65989;51.686;5.138;2023-02-03T05:48:57;102635.88;;;8.24;83.18
77062;BME280;65989;51.686;5.138;2023-02-03T05:51:22;102637.72;;;8.24;83.33
77062;BME280;65989;51.686;5.138;2023-02-03T05:53:49;102631.63;;;8.23;83.16
77062;BME280;65989;51.686;5.138;2023-02-03T05:56:14;102623.91;;;8.21;83.37
77062;BME280;65989;51.686;5.138;2023-02-03T05:58:40;102628.34;;;8.21;83.25
77062;BME280;65989;51.686;5.138;2023-02-03T06:01:05;102632.44;;;8.24;83.35
77062;BME280;65989;51.686;5.138;2023-02-03T06:03:30;102614.34;;;8.20;83.31
77062;BME280;65989;51.686;5.138;2023-02-03T06:05:56;102608.06;;;8.21;83.28
77062;BME280;65989;51.686;5.138;2023-02-03T06:08:23;102628.78;;;8.25;83.14
77062;BME280;65989;51.686;5.138;2023-02-03T06:10:56;102631.00;;;8.21;83.28
77062;BME280;65989;51.686;5.138;2023-02-03T06:13:21;102608.69;;;8.24;83.39
77062;BME280;65989;51.686;5.138;2023-02-03T06:15:47;102620.44;;;8.21;83.38
77062;BME280;65989;51.686;5.138;2023-02-03T06:18:12;102621.25;;;8.21;83.47
77062;BME280;65989;51.686;5.138;2023-02-03T06:20:37;102610.88;;;8.20;83.36
77062;BME280;65989;51.686;5.138;2023-02-03T06:23:03;102630.38;;;8.19;83.44
77062;BME280;65989;51.686;5.138;2023-02-03T06:25:28;102628.72;;;8.18;83.41
77062;BME280;65989;51.686;5.138;2023-02-03T06:27:56;102620.00;;;8.17;83.42
77062;BME280;65989;51.686;5.138;2023-02-03T06:30:21;102586.47;;;8.18;83.52
77062;BME280;65989;51.686;5.138;2023-02-03T06:32:48;102604.59;;;8.21;83.47
77062;BME280;65989;51.686;5.138;2023-02-03T06:35:13;102619.41;;;8.22;83.23
77062;BME280;65989;51.686;5.138;2023-02-03T06:37:39;102623.44;;;8.18;83.23
77062;BME280;65989;51.686;5.138;2023-02-03T06:40:05;102620.00;;;8.17;83.22
77062;BME280;65989;51.686;5.138;2023-02-03T06:42:32;102619.19;;;8.17;83.61
77062;BME280;65989;51.686;5.138;2023-02-03T06:44:57;102620.00;;;8.17;83.22
77062;BME280;65989;51.686;5.138;2023-02-03T06:47:23;102629.97;;;8.22;83.57
77062;BME280;65989;51.686;5.138;2023-02-03T06:49:49;102613.13;;;8.23;83.42
77062;BME280;65989;51.686;5.138;2023-02-03T06:52:16;102602.78;;;8.21;83.23
77062;BME280;65989;51.686;5.138;2023-02-03T06:54:42;102611.50;;;8.22;83.51
77062;BME280;65989;51.686;5.138;2023-02-03T06:57:07;102616.97;;;8.20;83.49
77062;BME280;65989;51.686;5.138;2023-02-03T06:59:32;102633.63;;;8.21;83.72
77062;BME280;65989;51.686;5.138;2023-02-03T07:01:58;102633.25;;;8.24;83.64
77062;BME280;65989;51.686;5.138;2023-02-03T07:04:23;102633.63;;;8.21;83.77
77062;BME280;65989;51.686;5.138;2023-02-03T07:06:49;102648.69;;;8.20;83.42
77062;BME280;65989;51.686;5.138;2023-02-03T07:09:15;102650.72;;;8.25;83.81
77062;BME280;65989;51.686;5.138;2023-02-03T07:11:40;102649.72;;;8.26;83.58
77062;BME280;65989;51.686;5.138;2023-02-03T07:14:06;102661.28;;;8.25;83.58
77062;BME280;65989;51.686;5.138;2023-02-03T07:16:31;102667.41;;;8.26;83.77
77062;BME280;65989;51.686;5.138;2023-02-03T07:18:58;102661.91;;;8.27;83.63
77062;BME280;65989;51.686;5.138;2023-02-03T07:21:24;102677.75;;;8.27;83.62
77062;BME280;65989;51.686;5.138;2023-02-03T07:23:49;102669.84;;;8.27;83.77
77062;BME280;65989;51.686;5.138;2023-02-03T07:26:15;102673.50;;;8.26;83.87
77062;BME280;65989;51.686;5.138;2023-02-03T07:28:41;102657.47;;;8.28;83.94
77062;BME280;65989;51.686;5.138;2023-02-03T07:31:07;102659.47;;;8.26;83.86
77062;BME280;65989;51.686;5.138;2023-02-03T07:33:34;102656.44;;;8.29;83.90
77062;BME280;65989;51.686;5.138;2023-02-03T07:36:00;102672.09;;;8.30;83.86
77062;BME280;65989;51.686;5.138;2023-02-03T07:38:27;102667.00;;;8.29;83.82
77062;BME280;65989;51.686;5.138;2023-02-03T07:40:52;102670.47;;;8.29;83.78
77062;BME280;65989;51.686;5.138;2023-02-03T07:43:18;102673.91;;;8.30;83.78
77062;BME280;65989;51.686;5.138;2023-02-03T07:45:44;102673.72;;;8.31;84.04
77062;BME280;65989;51.686;5.138;2023-02-03T07:48:10;102683.47;;;8.31;84.13
77062;BME280;65989;51.686;5.138;2023-02-03T07:50:35;102690.59;;;8.30;84.01
77062;BME280;65989;51.686;5.138;2023-02-03T07:53:01;102679.19;;;8.30;83.98
77062;BME280;65989;51.686;5.138;2023-02-03T07:55:27;102678.19;;;8.31;83.98
77062;BME280;65989;51.686;5.138;2023-02-03T07:57:56;102675.53;;;8.31;84.09
77062;BME280;65989;51.686;5.138;2023-02-03T08:00:22;102677.19;;;8.32;84.13
77062;BME280;65989;51.686;5.138;2023-02-03T08:02:48;102681.03;;;8.29;84.00
77062;BME280;65989;51.686;5.138;2023-02-03T08:05:14;102691.00;;;8.34;84.06
77062;BME280;65989;51.686;5.138;2023-02-03T08:07:40;102691.84;;;8.34;84.11
77062;BME280;65989;51.686;5.138;2023-02-03T08:10:07;102700.56;;;8.35;84.17
77062;BME280;65989;51.686;5.138;2023-02-03T08:12:32;102694.28;;;8.36;84.16
77062;BME280;65989;51.686;5.138;2023-02-03T08:14:58;102711.13;;;8.35;84.13
77062;BME280;65989;51.686;5.138;2023-02-03T08:17:24;102712.13;;;8.34;84.31
77062;BME280;65989;51.686;5.138;2023-02-03T08:19:49;102709.13;;;8.37;84.35
77062;BME280;65989;51.686;5.138;2023-02-03T08:22:14;102707.31;;;8.37;84.31
77062;BME280;65989;51.686;5.138;2023-02-03T08:24:45;102699.19;;;8.39;84.34
77062;BME280;65989;51.686;5.138;2023-02-03T08:27:15;102710.00;;;8.44;84.37
77062;BME280;65989;51.686;5.138;2023-02-03T08:29:42;102706.97;;;8.47;84.25
77062;BME280;65989;51.686;5.138;2023-02-03T08:32:16;102712.25;;;8.47;84.37
77062;BME280;65989;51.686;5.138;2023-02-03T08:34:42;102721.47;;;8.51;84.38
77062;BME280;65989;51.686;5.138;2023-02-03T08:37:10;102733.66;;;8.52;84.30
77062;BME280;65989;51.686;5.138;2023-02-03T08:39:36;102737.75;;;8.55;84.28
77062;BME280;65989;51.686;5.138;2023-02-03T08:42:02;102744.47;;;8.58;84.18
77062;BME280;65989;51.686;5.138;2023-02-03T08:44:31;102741.25;;;8.62;84.28
77062;BME280;65989;51.686;5.138;2023-02-03T08:46:57;102738.00;;;8.67;84.21
77062;BME280;65989;51.686;5.138;2023-02-03T08:49:24;102722.41;;;8.72;84.23
77062;BME280;65989;51.686;5.138;2023-02-03T08:51:50;102719.41;;;8.82;84.03
77062;BME280;65989;51.686;5.138;2023-02-03T08:54:16;102728.78;;;8.85;84.02
77062;BME280;65989;51.686;5.138;2023-02-03T08:56:42;102730.44;;;8.92;83.88
77062;BME280;65989;51.686;5.138;2023-02-03T08:59:07;102736.78;;;8.98;83.69
77062;BME280;65989;51.686;5.138;2023-02-03T09:01:33;102747.41;;;9.05;83.65
77062;BME280;65989;51.686;5.138;2023-02-03T09:03:58;102740.91;;;9.07;83.39
77062;BME280;65989;51.686;5.138;2023-02-03T09:06:26;102745.81;;;9.10;83.35
77062;BME280;65989;51.686;5.138;2023-02-03T09:08:51;102738.28;;;9.14;83.31
77062;BME280;65989;51.686;5.138;2023-02-03T09:11:17;102740.75;;;9.16;83.00
77062;BME280;65989;51.686;5.138;2023-02-03T09:13:43;102739.34;;;9.20;83.08
77062;BME280;65989;51.686;5.138;2023-02-03T09:16:22;102745.66;;;9.25;83.00
77062;BME280;65989;51.686;5.138;2023-02-03T09:18:50;102746.50;;;9.26;83.03
77062;BME280;65989;51.686;5.138;2023-02-03T09:21:43;102744.25;;;9.30;83.08
77062;BME280;65989;51.686;5.138;2023-02-03T09:24:09;102745.91;;;9.31;82.86
77062;BME280;65989;51.686;5.138;2023-02-03T09:26:35;102751.38;;;9.29;82.51
77062;BME280;65989;51.686;5.138;2023-02-03T09:29:00;102758.50;;;9.29;82.71
77062;BME280;65989;51.686;5.138;2023-02-03T09:31:25;102766.66;;;9.27;82.41
77062;BME280;65989;51.686;5.138;2023-02-03T09:33:51;102768.47;;;9.26;82.81
77062;BME280;65989;51.686;5.138;2023-02-03T09:36:16;102772.97;;;9.26;82.48
77062;BME280;65989;51.686;5.138;2023-02-03T09:38:41;102777.22;;;9.27;82.64
77062;BME280;65989;51.686;5.138;2023-02-03T09:44:07;102796.97;;;9.31;82.68
77062;BME280;65989;51.686;5.138;2023-02-03T09:46:45;102788.41;;;9.29;82.76
77062;BME280;65989;51.686;5.138;2023-02-03T09:49:26;102799.81;;;9.30;82.78
77062;BME280;65989;51.686;5.138;2023-02-03T09:51:54;102785.59;;;9.31;82.66
77062;BME280;65989;51.686;5.138;2023-02-03T09:54:42;102779.53;;;9.44;82.66
77062;BME280;65989;51.686;5.138;2023-02-03T09:57:20;102797.06;;;9.51;82.64
77062;BME280;65989;51.686;5.138;2023-02-03T09:59:47;102777.75;;;9.57;82.39
77062;BME280;65989;51.686;5.138;2023-02-03T10:04:50;102772.13;;;9.74;82.27
77062;BME280;65989;51.686;5.138;2023-02-03T10:07:30;102771.34;;;9.87;82.08
77062;BME280;65989;51.686;5.138;2023-02-03T10:18:04;102779.78;;;10.51;80.45
77062;BME280;65989;51.686;5.138;2023-02-03T10:23:15;102786.28;;;10.62;79.52
77062;BME280;65989;51.686;5.138;2023-02-03T10:25:46;102776.28;;;10.64;79.39
77062;BME280;65989;51.686;5.138;2023-02-03T10:28:17;102789.34;;;10.72;79.19
77062;BME280;65989;51.686;5.138;2023-02-03T10:30:47;102773.81;;;10.83;79.06
77062;BME280;65989;51.686;5.138;2023-02-03T10:33:16;102780.31;;;10.94;78.78
77062;BME280;65989;51.686;5.138;2023-02-03T10:35:51;102787.66;;;10.98;78.48
77062;BME280;65989;51.686;5.138;2023-02-03T10:38:31;102785.78;;;11.12;78.21
77062;BME280;65989;51.686;5.138;2023-02-03T10:40:58;102785.38;;;11.15;77.59
77062;BME280;65989;51.686;5.138;2023-02-03T10:43:25;102791.91;;;11.19;77.69
77062;BME280;65989;51.686;5.138;2023-02-03T10:46:33;102801.84;;;11.31;77.53
77062;BME280;65989;51.686;5.138;2023-02-03T10:48:57;102797.97;;;11.33;77.16
77062;BME280;65989;51.686;5.138;2023-02-03T10:51:24;102788.81;;;11.29;77.00
77062;BME280;65989;51.686;5.138;2023-02-03T10:53:50;102798.44;;;11.24;76.75
77062;BME280;65989;51.686;5.138;2023-02-03T10:56:34;102804.34;;;11.19;77.00
77062;BME280;65989;51.686;5.138;2023-02-03T10:59:01;102801.50;;;11.14;77.06
77062;BME280;65989;51.686;5.138;2023-02-03T11:01:39;102800.88;;;11.12;77.10
77062;BME280;65989;51.686;5.138;2023-02-03T11:04:23;102801.09;;;11.10;76.88
77062;BME280;65989;51.686;5.138;2023-02-03T11:06:59;102811.94;;;11.09;77.00
77062;BME280;65989;51.686;5.138;2023-02-03T11:09:32;102816.63;;;11.00;76.96
77062;BME280;65989;51.686;5.138;2023-02-03T11:12:16;102823.38;;;10.96;77.18
77062;BME280;65989;51.686;5.138;2023-02-03T11:14:52;102825.22;;;10.88;77.17
77062;BME280;65989;51.686;5.138;2023-02-03T11:17:23;102819.72;;;10.83;77.40
77062;BME280;65989;51.686;5.138;2023-02-03T11:19:52;102818.09;;;10.82;77.11
77062;BME280;65989;51.686;5.138;2023-02-03T11:22:30;102814.63;;;10.88;77.53
77062;BME280;65989;51.686;5.138;2023-02-03T11:24:57;102811.97;;;10.88;77.39
77062;BME280;65989;51.686;5.138;2023-02-03T11:27:24;102808.28;;;10.96;77.64
77062;BME280;65989;51.686;5.138;2023-02-03T11:30:16;102798.47;;;11.03;77.69
77062;BME280;65989;51.686;5.138;2023-02-03T11:32:45;102806.22;;;11.05;77.52
77062;BME280;65989;51.686;5.138;2023-02-03T11:35:27;102796.78;;;11.16;77.45
77062;BME280;65989;51.686;5.138;2023-02-03T11:37:57;102812.94;;;11.14;77.21
77062;BME280;65989;51.686;5.138;2023-02-03T11:45:29;102803.94;;;11.15;76.83
77062;BME280;65989;51.686;5.138;2023-02-03T11:51:21;102804.34;;;11.19;77.26
77062;BME280;65989;51.686;5.138;2023-02-03T11:54:01;102812.91;;;11.21;77.18
77062;BME280;65989;51.686;5.138;2023-02-03T12:04:44;102795.50;;;11.39;77.06
77062;BME280;65989;51.686;5.138;2023-02-03T12:07:28;102787.97;;;11.29;76.70
77062;BME280;65989;51.686;5.138;2023-02-03T12:26:21;102797.06;;;10.81;77.74
77062;BME280;65989;51.686;5.138;2023-02-03T12:29:18;102797.06;;;10.81;77.98
77062;BME280;65989;51.686;5.138;2023-02-03T12:31:53;102803.00;;;10.76;77.99
77062;BME280;65989;51.686;5.138;2023-02-03T12:34:32;102810.94;;;10.76;78.13
77062;BME280;65989;51.686;5.138;2023-02-03T12:37:04;102801.78;;;10.72;78.03
77062;BME280;65989;51.686;5.138;2023-02-03T12:39:43;102816.88;;;10.71;78.24
77062;BME280;65989;51.686;5.138;2023-02-03T12:42:23;102814.63;;;10.75;78.33
77062;BME280;65989;51.686;5.138;2023-02-03T12:45:02;102815.22;;;10.84;78.19
77062;BME280;65989;51.686;5.138;2023-02-03T12:47:39;102829.09;;;10.93;78.08
77062;BME280;65989;51.686;5.138;2023-02-03T12:50:29;102820.72;;;10.96;78.06
77062;BME280;65989;51.686;5.138;2023-02-03T12:53:16;102825.19;;;11.15;78.01
77062;BME280;65989;51.686;5.138;2023-02-03T12:55:47;102835.75;;;11.29;77.77
77062;BME280;65989;51.686;5.138;2023-02-03T12:58:24;102817.13;;;11.42;77.61
77062;BME280;65989;51.686;5.138;2023-02-03T13:01:03;102827.91;;;11.54;77.40
77062;BME280;65989;51.686;5.138;2023-02-03T13:06:48;102818.66;;;11.70;76.80
77062;BME280;65989;51.686;5.138;2023-02-03T13:09:37;102822.69;;;11.79;76.73
77062;BME280;65989;51.686;5.138;2023-02-03T13:20:29;102832.13;;;11.75;76.01
77062;BME280;65989;51.686;5.138;2023-02-03T13:22:56;102827.19;;;11.79;76.00
77062;BME280;65989;51.686;5.138;2023-02-03T13:30:52;102846.69;;;11.59;76.49
77062;BME280;65989;51.686;5.138;2023-02-03T13:37:01;102851.03;;;11.40;76.62
77062;BME280;65989;51.686;5.138;2023-02-03T13:39:42;102862.47;;;11.34;76.66
77062;BME280;65989;51.686;5.138;2023-02-03T13:42:24;102855.59;;;11.19;76.80
77062;BME280;65989;51.686;5.138;2023-02-03T13:44:58;102864.78;;;11.10;77.01
77062;BME280;65989;51.686;5.138;2023-02-03T13:47:29;102863.16;;;11.09;77.10
77062;BME280;65989;51.686;5.138;2023-02-03T13:49:59;102858.03;;;11.14;77.21
77062;BME280;65989;51.686;5.138;2023-02-03T13:52:37;102860.06;;;11.19;77.21
77062;BME280;65989;51.686;5.138;2023-02-03T13:55:06;102858.44;;;11.18;77.44
77062;BME280;65989;51.686;5.138;2023-02-03T13:57:34;102869.47;;;11.08;77.47
77062;BME280;65989;51.686;5.138;2023-02-03T14:00:05;102867.25;;;10.98;77.42
77062;BME280;65989;51.686;5.138;2023-02-03T14:02:54;102859.09;;;10.93;78.03
77062;BME280;65989;51.686;5.138;2023-02-03T14:05:50;102860.09;;;10.92;78.14
77062;BME280;65989;51.686;5.138;2023-02-03T14:16:33;102867.84;;;10.60;79.21
77062;BME280;65989;51.686;5.138;2023-02-03T14:19:00;102874.41;;;10.57;79.16
77062;BME280;65989;51.686;5.138;2023-02-03T14:21:27;102875.19;;;10.51;79.52
77062;BME280;65989;51.686;5.138;2023-02-03T14:24:03;102867.66;;;10.41;79.79
77062;BME280;65989;51.686;5.138;2023-02-03T14:26:39;102870.31;;;10.41;80.03
77062;BME280;65989;51.686;5.138;2023-02-03T14:29:07;102876.97;;;10.37;80.01
77062;BME280;65989;51.686;5.138;2023-02-03T14:34:29;102880.44;;;10.31;80.80
77062;BME280;65989;51.686;5.138;2023-02-03T14:36:55;102892.66;;;10.25;80.89
77062;BME280;65989;51.686;5.138;2023-02-03T14:40:30;102883.25;;;10.23;81.22
77062;BME280;65989;51.686;5.138;2023-02-03T14:48:01;102901.19;;;10.27;81.58
77062;BME280;65989;51.686;5.138;2023-02-03T14:53:20;102908.34;;;10.20;81.79
77062;BME280;65989;51.686;5.138;2023-02-03T14:58:36;102912.38;;;10.09;82.17